Aviation Digital Data Service (ADDS)

Output produced by TAFs form (0910 UTC 02 September 2014)
found at http://www.aviationweather.gov/adds/tafs/
 
KDEN 020853Z 28005KT 10SM CLR 11/07 A3016 RMK AO2 SLP146 T01110067 50003 $
KDEN 020900Z 0209/0312 26006KT P6SM SKC 
     FM021100 21006KT P6SM SKC 
     FM021400 VRB05KT P6SM SKC 
     FM021900 15006KT P6SM FEW100 
     FM030300 21009KT P6SM FEW200